North Turner, Maine
Current Conditions -  °F | °C
As of 12:55 AM on Sunday 21 Dec 2014 (Local Time) from KLEW Reporting Station
Overcast Overcast  
Wind Chill:   Ceiling: 900
Heat Index: 19°   Visibility: 10mi
Dew Point: 16°   Wind: 9mph
Humidity: 86%   Direction: 360°N
Pressure: 30.34"   Gusts: NA
Location:  44.34°N, 70.26°W
Report Text: KLEW 210555Z AUTO 36008KT 10SM OVC009 M07/M09 A3034 RMK AO1 11060 21070 57007
Loading
Personal Weather Stations






























Interactive Weather Map New forecast layout! Learn more

10-Day Weather Forecast

Advertisements
Track Severe Weather on mobile